sensor_id;sensor_type;location;lat;lon;timestamp;P1;durP1;ratioP1;P2;durP2;ratioP2
18407;SDS011;9330;52.210;21.174;2023-08-06T08:49:37;1999.90;;;999.90;;
18407;SDS011;9330;52.210;21.174;2023-08-06T08:52:04;618.92;;;277.52;;
18407;SDS011;9330;52.210;21.174;2023-08-06T08:54:33;226.20;;;114.05;;
18407;SDS011;9330;52.210;21.174;2023-08-06T08:57:01;1999.90;;;999.90;;
18407;SDS011;9330;52.210;21.174;2023-08-06T08:59:28;1999.90;;;999.90;;
18407;SDS011;9330;52.210;21.174;2023-08-06T09:01:55;1999.90;;;999.90;;
18407;SDS011;9330;52.210;21.174;2023-08-06T09:04:25;1999.90;;;999.90;;
18407;SDS011;9330;52.210;21.174;2023-08-06T09:06:58;1999.90;;;999.90;;
18407;SDS011;9330;52.210;21.174;2023-08-06T09:09:26;1999.90;;;999.90;;
18407;SDS011;9330;52.210;21.174;2023-08-06T09:11:59;1999.90;;;999.90;;
18407;SDS011;9330;52.210;21.174;2023-08-06T09:14:34;1999.90;;;999.90;;
18407;SDS011;9330;52.210;21.174;2023-08-06T09:17:01;1999.90;;;999.90;;
18407;SDS011;9330;52.210;21.174;2023-08-06T09:19:29;1999.90;;;999.90;;
18407;SDS011;9330;52.210;21.174;2023-08-06T09:21:58;13.15;;;11.98;;
18407;SDS011;9330;52.210;21.174;2023-08-06T09:24:25;13.43;;;12.85;;
18407;SDS011;9330;52.210;21.174;2023-08-06T09:26:52;1999.90;;;999.90;;
18407;SDS011;9330;52.210;21.174;2023-08-06T09:29:20;1999.90;;;999.90;;
18407;SDS011;9330;52.210;21.174;2023-08-06T09:31:47;1999.90;;;999.90;;
18407;SDS011;9330;52.210;21.174;2023-08-06T09:34:17;1999.90;;;999.90;;
18407;SDS011;9330;52.210;21.174;2023-08-06T09:36:46;1999.90;;;999.90;;
18407;SDS011;9330;52.210;21.174;2023-08-06T09:39:15;1999.90;;;999.90;;
18407;SDS011;9330;52.210;21.174;2023-08-06T09:41:43;1999.90;;;999.90;;
18407;SDS011;9330;52.210;21.174;2023-08-06T09:44:15;1999.90;;;999.90;;
18407;SDS011;9330;52.210;21.174;2023-08-06T09:46:46;38.88;;;15.73;;
18407;SDS011;9330;52.210;21.174;2023-08-06T09:49:14;1999.90;;;999.90;;
18407;SDS011;9330;52.210;21.174;2023-08-06T09:51:41;1999.90;;;999.90;;
18407;SDS011;9330;52.210;21.174;2023-08-06T09:54:09;6.32;;;6.05;;
18407;SDS011;9330;52.210;21.174;2023-08-06T09:56:39;1999.90;;;999.90;;
18407;SDS011;9330;52.210;21.174;2023-08-06T09:59:08;7.28;;;6.97;;
18407;SDS011;9330;52.210;21.174;2023-08-06T10:01:36;26.45;;;25.35;;
18407;SDS011;9330;52.210;21.174;2023-08-06T10:04:04;1999.90;;;999.90;;
18407;SDS011;9330;52.210;21.174;2023-08-06T10:06:33;1999.90;;;999.90;;
18407;SDS011;9330;52.210;21.174;2023-08-06T10:09:01;1999.90;;;999.90;;
18407;SDS011;9330;52.210;21.174;2023-08-06T10:11:28;4.80;;;4.60;;
18407;SDS011;9330;52.210;21.174;2023-08-06T10:14:00;6.25;;;6.05;;
18407;SDS011;9330;52.210;21.174;2023-08-06T10:16:32;7.32;;;7.03;;
18407;SDS011;9330;52.210;21.174;2023-08-06T10:19:00;7.18;;;6.88;;
18407;SDS011;9330;52.210;21.174;2023-08-06T10:21:30;7.90;;;7.60;;
18407;SDS011;9330;52.210;21.174;2023-08-06T10:23:57;20.05;;;18.65;;
18407;SDS011;9330;52.210;21.174;2023-08-06T10:26:27;85.45;;;66.22;;
18407;SDS011;9330;52.210;21.174;2023-08-06T10:28:54;6.25;;;3.45;;
18407;SDS011;9330;52.210;21.174;2023-08-06T10:34:37;9.60;;;2.70;;
18407;SDS011;9330;52.210;21.174;2023-08-06T10:37:20;2.90;;;2.58;;
18407;SDS011;9330;52.210;21.174;2023-08-06T10:39:48;4.32;;;2.33;;
18407;SDS011;9330;52.210;21.174;2023-08-06T10:42:26;3.60;;;3.30;;
18407;SDS011;9330;52.210;21.174;2023-08-06T10:45:16;2.55;;;2.28;;
18407;SDS011;9330;52.210;21.174;2023-08-06T10:47:45;3.15;;;2.22;;
18407;SDS011;9330;52.210;21.174;2023-08-06T10:50:13;2.10;;;1.73;;
18407;SDS011;9330;52.210;21.174;2023-08-06T10:52:42;4.10;;;2.17;;
18407;SDS011;9330;52.210;21.174;2023-08-06T10:55:09;2.90;;;2.10;;
18407;SDS011;9330;52.210;21.174;2023-08-06T10:57:36;3.95;;;2.25;;
18407;SDS011;9330;52.210;21.174;2023-08-06T11:00:04;5.68;;;2.33;;
18407;SDS011;9330;52.210;21.174;2023-08-06T11:02:33;5.28;;;2.63;;
18407;SDS011;9330;52.210;21.174;2023-08-06T11:05:06;3.75;;;2.50;;
18407;SDS011;9330;52.210;21.174;2023-08-06T11:07:33;2.92;;;2.40;;
18407;SDS011;9330;52.210;21.174;2023-08-06T11:10:01;3.13;;;2.05;;
18407;SDS011;9330;52.210;21.174;2023-08-06T11:12:29;2.92;;;2.42;;
18407;SDS011;9330;52.210;21.174;2023-08-06T11:14:56;1.98;;;1.77;;
18407;SDS011;9330;52.210;21.174;2023-08-06T11:17:23;1.90;;;1.75;;
18407;SDS011;9330;52.210;21.174;2023-08-06T11:19:50;3.38;;;1.88;;
18407;SDS011;9330;52.210;21.174;2023-08-06T11:22:20;2.20;;;1.90;;
18407;SDS011;9330;52.210;21.174;2023-08-06T11:24:47;1.80;;;1.67;;
18407;SDS011;9330;52.210;21.174;2023-08-06T11:27:14;5.47;;;2.20;;
18407;SDS011;9330;52.210;21.174;2023-08-06T11:29:42;2.95;;;2.15;;
18407;SDS011;9330;52.210;21.174;2023-08-06T11:32:09;2.10;;;1.67;;
18407;SDS011;9330;52.210;21.174;2023-08-06T11:34:36;4.32;;;2.50;;
18407;SDS011;9330;52.210;21.174;2023-08-06T11:37:04;4.05;;;2.50;;
18407;SDS011;9330;52.210;21.174;2023-08-06T11:39:33;3.42;;;3.10;;
18407;SDS011;9330;52.210;21.174;2023-08-06T11:42:02;7.38;;;3.50;;
18407;SDS011;9330;52.210;21.174;2023-08-06T11:44:29;4.50;;;3.72;;
18407;SDS011;9330;52.210;21.174;2023-08-06T11:46:58;4.13;;;3.50;;
18407;SDS011;9330;52.210;21.174;2023-08-06T11:49:42;10.52;;;5.80;;
18407;SDS011;9330;52.210;21.174;2023-08-06T11:52:13;6.25;;;5.40;;
18407;SDS011;9330;52.210;21.174;2023-08-06T11:54:46;6.35;;;5.65;;
18407;SDS011;9330;52.210;21.174;2023-08-06T11:57:14;12.60;;;5.22;;
18407;SDS011;9330;52.210;21.174;2023-08-06T11:59:41;10.00;;;5.63;;
18407;SDS011;9330;52.210;21.174;2023-08-06T12:02:09;12.35;;;5.70;;
18407;SDS011;9330;52.210;21.174;2023-08-06T12:07:29;9.68;;;5.57;;
18407;SDS011;9330;52.210;21.174;2023-08-06T12:09:58;6.90;;;5.47;;
18407;SDS011;9330;52.210;21.174;2023-08-06T12:12:26;6.30;;;5.50;;
18407;SDS011;9330;52.210;21.174;2023-08-06T12:14:53;6.03;;;5.38;;
18407;SDS011;9330;52.210;21.174;2023-08-06T12:17:20;5.47;;;4.78;;
18407;SDS011;9330;52.210;21.174;2023-08-06T12:19:47;6.85;;;5.07;;
18407;SDS011;9330;52.210;21.174;2023-08-06T12:22:14;8.68;;;4.57;;
18407;SDS011;9330;52.210;21.174;2023-08-06T12:24:41;6.70;;;5.00;;
18407;SDS011;9330;52.210;21.174;2023-08-06T12:27:10;7.47;;;4.95;;
18407;SDS011;9330;52.210;21.174;2023-08-06T12:29:37;5.88;;;5.20;;
18407;SDS011;9330;52.210;21.174;2023-08-06T12:32:07;8.52;;;5.57;;
18407;SDS011;9330;52.210;21.174;2023-08-06T12:34:34;5.85;;;5.32;;
18407;SDS011;9330;52.210;21.174;2023-08-06T12:37:01;7.13;;;5.28;;
18407;SDS011;9330;52.210;21.174;2023-08-06T12:39:28;8.18;;;5.88;;
18407;SDS011;9330;52.210;21.174;2023-08-06T12:41:56;7.45;;;5.85;;
18407;SDS011;9330;52.210;21.174;2023-08-06T12:44:24;6.68;;;5.10;;
18407;SDS011;9330;52.210;21.174;2023-08-06T12:46:51;6.28;;;5.72;;
18407;SDS011;9330;52.210;21.174;2023-08-06T12:49:18;9.77;;;6.20;;
18407;SDS011;9330;52.210;21.174;2023-08-06T12:51:47;16.30;;;6.07;;
18407;SDS011;9330;52.210;21.174;2023-08-06T12:54:14;6.97;;;6.25;;
18407;SDS011;9330;52.210;21.174;2023-08-06T12:56:40;108.88;;;16.98;;
18407;SDS011;9330;52.210;21.174;2023-08-06T12:59:07;5.72;;;5.07;;
18407;SDS011;9330;52.210;21.174;2023-08-06T13:01:36;7.32;;;5.57;;
18407;SDS011;9330;52.210;21.174;2023-08-06T13:04:03;6.05;;;5.30;;
18407;SDS011;9330;52.210;21.174;2023-08-06T13:06:30;8.27;;;5.72;;
18407;SDS011;9330;52.210;21.174;2023-08-06T13:09:01;6.38;;;5.50;;
18407;SDS011;9330;52.210;21.174;2023-08-06T13:11:28;12.23;;;5.47;;
18407;SDS011;9330;52.210;21.174;2023-08-06T13:13:56;9.25;;;6.30;;
18407;SDS011;9330;52.210;21.174;2023-08-06T13:16:25;188.70;;;22.15;;
18407;SDS011;9330;52.210;21.174;2023-08-06T13:18:53;99.15;;;79.63;;
18407;SDS011;9330;52.210;21.174;2023-08-06T13:21:20;0.20;;;0.20;;
18407;SDS011;9330;52.210;21.174;2023-08-06T13:23:46;1512.93;;;761.78;;
18407;SDS011;9330;52.210;21.174;2023-08-06T13:26:13;1530.15;;;764.72;;
18407;SDS011;9330;52.210;21.174;2023-08-06T13:28:41;61.90;;;59.15;;
18407;SDS011;9330;52.210;21.174;2023-08-06T13:31:08;1999.90;;;999.90;;
18407;SDS011;9330;52.210;21.174;2023-08-06T13:33:35;1999.90;;;999.90;;
18407;SDS011;9330;52.210;21.174;2023-08-06T13:36:05;286.80;;;273.23;;
18407;SDS011;9330;52.210;21.174;2023-08-06T13:38:32;1999.90;;;999.90;;
18407;SDS011;9330;52.210;21.174;2023-08-06T13:41:00;1999.90;;;999.90;;
18407;SDS011;9330;52.210;21.174;2023-08-06T13:43:27;1999.90;;;999.90;;
18407;SDS011;9330;52.210;21.174;2023-08-06T13:45:54;1999.90;;;999.90;;
18407;SDS011;9330;52.210;21.174;2023-08-06T13:48:21;1999.90;;;999.90;;
18407;SDS011;9330;52.210;21.174;2023-08-06T13:50:48;1999.90;;;999.90;;
18407;SDS011;9330;52.210;21.174;2023-08-06T13:53:16;1999.90;;;999.90;;
18407;SDS011;9330;52.210;21.174;2023-08-06T13:55:43;1999.90;;;999.90;;
18407;SDS011;9330;52.210;21.174;2023-08-06T13:58:10;1999.90;;;999.90;;
18407;SDS011;9330;52.210;21.174;2023-08-06T14:00:37;40.38;;;24.10;;
18407;SDS011;9330;52.210;21.174;2023-08-06T14:03:04;60.95;;;57.10;;
18407;SDS011;9330;52.210;21.174;2023-08-06T14:05:30;68.40;;;64.97;;
18407;SDS011;9330;52.210;21.174;2023-08-06T14:07:58;41.60;;;17.30;;
18407;SDS011;9330;52.210;21.174;2023-08-06T14:10:26;2.45;;;2.35;;
18407;SDS011;9330;52.210;21.174;2023-08-06T14:12:53;2.25;;;2.15;;
18407;SDS011;9330;52.210;21.174;2023-08-06T14:15:20;53.25;;;19.10;;
18407;SDS011;9330;52.210;21.174;2023-08-06T14:17:47;0.93;;;0.93;;
18407;SDS011;9330;52.210;21.174;2023-08-06T14:20:14;0.90;;;0.90;;
18407;SDS011;9330;52.210;21.174;2023-08-06T14:22:41;1047.05;;;511.60;;
18407;SDS011;9330;52.210;21.174;2023-08-06T14:25:08;159.38;;;143.10;;
18407;SDS011;9330;52.210;21.174;2023-08-06T14:27:36;61.25;;;56.08;;
18407;SDS011;9330;52.210;21.174;2023-08-06T14:30:04;59.90;;;55.08;;
18407;SDS011;9330;52.210;21.174;2023-08-06T14:32:32;46.60;;;25.73;;
18407;SDS011;9330;52.210;21.174;2023-08-06T14:35:00;18.83;;;18.00;;
18407;SDS011;9330;52.210;21.174;2023-08-06T14:37:26;12.27;;;11.77;;
18407;SDS011;9330;52.210;21.174;2023-08-06T14:39:53;12.32;;;11.80;;
18407;SDS011;9330;52.210;21.174;2023-08-06T14:42:20;12.45;;;11.85;;
18407;SDS011;9330;52.210;21.174;2023-08-06T14:44:48;33.42;;;30.85;;
18407;SDS011;9330;52.210;21.174;2023-08-06T14:47:16;30.65;;;27.70;;
18407;SDS011;9330;52.210;21.174;2023-08-06T14:49:43;200.52;;;190.57;;
18407;SDS011;9330;52.210;21.174;2023-08-06T14:52:09;127.40;;;106.43;;
18407;SDS011;9330;52.210;21.174;2023-08-06T14:54:36;95.43;;;91.03;;
18407;SDS011;9330;52.210;21.174;2023-08-06T14:57:03;31.30;;;28.35;;
18407;SDS011;9330;52.210;21.174;2023-08-06T14:59:30;66.50;;;52.60;;
18407;SDS011;9330;52.210;21.174;2023-08-06T15:01:59;8.20;;;7.88;;
18407;SDS011;9330;52.210;21.174;2023-08-06T15:04:26;22.95;;;21.17;;
18407;SDS011;9330;52.210;21.174;2023-08-06T15:06:53;116.53;;;109.55;;
18407;SDS011;9330;52.210;21.174;2023-08-06T15:09:20;274.67;;;262.00;;
18407;SDS011;9330;52.210;21.174;2023-08-06T15:11:48;385.85;;;366.85;;
18407;SDS011;9330;52.210;21.174;2023-08-06T15:14:15;159.52;;;146.93;;
18407;SDS011;9330;52.210;21.174;2023-08-06T15:16:42;64.18;;;61.17;;
18407;SDS011;9330;52.210;21.174;2023-08-06T15:19:10;2.28;;;2.17;;
18407;SDS011;9330;52.210;21.174;2023-08-06T15:21:37;1.17;;;1.17;;
18407;SDS011;9330;52.210;21.174;2023-08-06T15:24:04;1.60;;;1.60;;
18407;SDS011;9330;52.210;21.174;2023-08-06T15:26:31;40.80;;;38.97;;
18407;SDS011;9330;52.210;21.174;2023-08-06T15:28:59;50.92;;;48.15;;
18407;SDS011;9330;52.210;21.174;2023-08-06T15:31:27;38.90;;;36.58;;
18407;SDS011;9330;52.210;21.174;2023-08-06T15:34:02;29.88;;;28.42;;
18407;SDS011;9330;52.210;21.174;2023-08-06T15:36:31;67.63;;;61.80;;
18407;SDS011;9330;52.210;21.174;2023-08-06T15:38:58;43.28;;;40.70;;
18407;SDS011;9330;52.210;21.174;2023-08-06T15:41:25;42.80;;;40.35;;
18407;SDS011;9330;52.210;21.174;2023-08-06T15:43:52;56.58;;;50.75;;
18407;SDS011;9330;52.210;21.174;2023-08-06T15:46:19;47.15;;;43.45;;
18407;SDS011;9330;52.210;21.174;2023-08-06T15:48:47;42.38;;;40.47;;
18407;SDS011;9330;52.210;21.174;2023-08-06T15:51:14;32.72;;;31.27;;
18407;SDS011;9330;52.210;21.174;2023-08-06T15:53:42;40.75;;;38.08;;
18407;SDS011;9330;52.210;21.174;2023-08-06T15:56:09;1999.90;;;999.90;;
18407;SDS011;9330;52.210;21.174;2023-08-06T15:58:36;1999.90;;;999.90;;
18407;SDS011;9330;52.210;21.174;2023-08-06T16:01:03;63.17;;;60.15;;
18407;SDS011;9330;52.210;21.174;2023-08-06T16:03:29;1999.90;;;999.90;;
18407;SDS011;9330;52.210;21.174;2023-08-06T16:05:56;1999.90;;;999.90;;
18407;SDS011;9330;52.210;21.174;2023-08-06T16:08:23;1999.90;;;999.90;;
18407;SDS011;9330;52.210;21.174;2023-08-06T16:10:51;1999.90;;;999.90;;
18407;SDS011;9330;52.210;21.174;2023-08-06T16:13:18;1999.90;;;999.90;;
18407;SDS011;9330;52.210;21.174;2023-08-06T16:15:45;1999.90;;;999.90;;
18407;SDS011;9330;52.210;21.174;2023-08-06T16:18:12;96.55;;;34.97;;
18407;SDS011;9330;52.210;21.174;2023-08-06T16:20:41;205.85;;;185.90;;
18407;SDS011;9330;52.210;21.174;2023-08-06T16:23:08;1543.25;;;767.47;;
18407;SDS011;9330;52.210;21.174;2023-08-06T16:25:36;1.42;;;1.23;;
18407;SDS011;9330;52.210;21.174;2023-08-06T16:28:04;1.60;;;1.42;;
18407;SDS011;9330;52.210;21.174;2023-08-06T16:30:32;2.53;;;2.10;;
18407;SDS011;9330;52.210;21.174;2023-08-06T16:32:58;70.65;;;60.33;;
18407;SDS011;9330;52.210;21.174;2023-08-06T16:35:26;1.45;;;1.05;;
18407;SDS011;9330;52.210;21.174;2023-08-06T16:37:54;32.30;;;29.98;;
18407;SDS011;9330;52.210;21.174;2023-08-06T16:40:20;246.95;;;52.28;;
18407;SDS011;9330;52.210;21.174;2023-08-06T16:42:47;14.57;;;2.30;;
18407;SDS011;9330;52.210;21.174;2023-08-06T16:45:16;29.10;;;5.82;;
18407;SDS011;9330;52.210;21.174;2023-08-06T16:47:43;16.20;;;2.53;;
18407;SDS011;9330;52.210;21.174;2023-08-06T16:50:09;6.75;;;6.35;;
18407;SDS011;9330;52.210;21.174;2023-08-06T16:52:36;324.95;;;161.95;;
18407;SDS011;9330;52.210;21.174;2023-08-06T16:55:03;1999.90;;;999.90;;
18407;SDS011;9330;52.210;21.174;2023-08-06T16:57:31;1999.90;;;999.90;;
18407;SDS011;9330;52.210;21.174;2023-08-06T16:59:58;1999.90;;;999.90;;
18407;SDS011;9330;52.210;21.174;2023-08-06T17:02:26;1999.90;;;999.90;;
18407;SDS011;9330;52.210;21.174;2023-08-06T17:04:53;1999.90;;;999.90;;
18407;SDS011;9330;52.210;21.174;2023-08-06T17:07:20;1999.90;;;999.90;;
18407;SDS011;9330;52.210;21.174;2023-08-06T17:09:47;1999.90;;;999.90;;
18407;SDS011;9330;52.210;21.174;2023-08-06T17:12:14;1999.90;;;999.90;;
18407;SDS011;9330;52.210;21.174;2023-08-06T17:14:45;1999.90;;;999.90;;
18407;SDS011;9330;52.210;21.174;2023-08-06T17:17:11;1999.90;;;999.90;;
18407;SDS011;9330;52.210;21.174;2023-08-06T17:19:40;1999.90;;;999.90;;
18407;SDS011;9330;52.210;21.174;2023-08-06T17:22:08;119.25;;;113.72;;
18407;SDS011;9330;52.210;21.174;2023-08-06T17:24:35;46.78;;;41.85;;
18407;SDS011;9330;52.210;21.174;2023-08-06T17:27:02;24.13;;;21.55;;
18407;SDS011;9330;52.210;21.174;2023-08-06T17:29:29;9.73;;;9.15;;
18407;SDS011;9330;52.210;21.174;2023-08-06T17:31:56;42.78;;;7.70;;
18407;SDS011;9330;52.210;21.174;2023-08-06T17:34:23;461.90;;;133.02;;
18407;SDS011;9330;52.210;21.174;2023-08-06T17:36:51;83.90;;;23.08;;
18407;SDS011;9330;52.210;21.174;2023-08-06T17:39:18;46.42;;;34.10;;
18407;SDS011;9330;52.210;21.174;2023-08-06T17:41:45;599.72;;;318.60;;
18407;SDS011;9330;52.210;21.174;2023-08-06T17:44:13;1999.90;;;999.90;;
18407;SDS011;9330;52.210;21.174;2023-08-06T17:46:40;1999.90;;;999.90;;
18407;SDS011;9330;52.210;21.174;2023-08-06T17:49:07;1999.90;;;999.90;;
18407;SDS011;9330;52.210;21.174;2023-08-06T17:51:33;1999.90;;;999.90;;
18407;SDS011;9330;52.210;21.174;2023-08-06T17:54:02;1999.90;;;999.90;;
18407;SDS011;9330;52.210;21.174;2023-08-06T17:56:29;1999.90;;;999.90;;
18407;SDS011;9330;52.210;21.174;2023-08-06T17:58:56;1999.90;;;999.90;;
18407;SDS011;9330;52.210;21.174;2023-08-06T18:01:23;1999.90;;;999.90;;
18407;SDS011;9330;52.210;21.174;2023-08-06T18:03:50;1999.90;;;999.90;;
18407;SDS011;9330;52.210;21.174;2023-08-06T18:06:16;1999.90;;;999.90;;
18407;SDS011;9330;52.210;21.174;2023-08-06T18:08:43;1999.90;;;999.90;;
18407;SDS011;9330;52.210;21.174;2023-08-06T18:11:12;1999.90;;;999.90;;
18407;SDS011;9330;52.210;21.174;2023-08-06T18:13:39;1999.90;;;999.90;;
18407;SDS011;9330;52.210;21.174;2023-08-06T18:16:06;1999.90;;;999.90;;
18407;SDS011;9330;52.210;21.174;2023-08-06T18:18:33;1999.90;;;999.90;;
18407;SDS011;9330;52.210;21.174;2023-08-06T18:21:00;1999.90;;;999.90;;
18407;SDS011;9330;52.210;21.174;2023-08-06T18:23:28;1999.90;;;999.90;;
18407;SDS011;9330;52.210;21.174;2023-08-06T18:25:55;1999.90;;;999.90;;
18407;SDS011;9330;52.210;21.174;2023-08-06T18:28:25;1999.90;;;999.90;;
18407;SDS011;9330;52.210;21.174;2023-08-06T18:30:52;1999.90;;;999.90;;
18407;SDS011;9330;52.210;21.174;2023-08-06T18:33:19;48.72;;;18.52;;
18407;SDS011;9330;52.210;21.174;2023-08-06T18:35:45;18.63;;;17.45;;
18407;SDS011;9330;52.210;21.174;2023-08-06T18:38:12;247.00;;;139.30;;
18407;SDS011;9330;52.210;21.174;2023-08-06T18:40:39;382.52;;;319.77;;
18407;SDS011;9330;52.210;21.174;2023-08-06T18:43:07;1999.90;;;999.90;;
18407;SDS011;9330;52.210;21.174;2023-08-06T18:45:35;1999.90;;;999.90;;
18407;SDS011;9330;52.210;21.174;2023-08-06T18:48:04;1999.90;;;999.90;;
18407;SDS011;9330;52.210;21.174;2023-08-06T18:50:31;1999.90;;;999.90;;
18407;SDS011;9330;52.210;21.174;2023-08-06T18:53:00;1999.90;;;999.90;;
18407;SDS011;9330;52.210;21.174;2023-08-06T18:55:27;1999.90;;;999.90;;
18407;SDS011;9330;52.210;21.174;2023-08-06T18:57:56;1999.90;;;999.90;;
18407;SDS011;9330;52.210;21.174;2023-08-06T19:00:22;1999.90;;;999.90;;
18407;SDS011;9330;52.210;21.174;2023-08-06T19:02:51;1999.90;;;999.90;;
18407;SDS011;9330;52.210;21.174;2023-08-06T19:05:18;213.85;;;193.23;;
18407;SDS011;9330;52.210;21.174;2023-08-06T19:07:44;5.13;;;4.72;;
18407;SDS011;9330;52.210;21.174;2023-08-06T19:10:11;90.82;;;80.63;;
18407;SDS011;9330;52.210;21.174;2023-08-06T19:12:38;37.53;;;35.55;;
18407;SDS011;9330;52.210;21.174;2023-08-06T19:15:06;170.15;;;72.72;;
18407;SDS011;9330;52.210;21.174;2023-08-06T19:17:33;1999.90;;;999.90;;
18407;SDS011;9330;52.210;21.174;2023-08-06T19:20:01;1999.90;;;999.90;;
18407;SDS011;9330;52.210;21.174;2023-08-06T19:22:28;818.83;;;422.75;;
18407;SDS011;9330;52.210;21.174;2023-08-06T19:24:55;809.38;;;285.73;;
18407;SDS011;9330;52.210;21.174;2023-08-06T19:27:22;1999.90;;;999.90;;
18407;SDS011;9330;52.210;21.174;2023-08-06T19:29:50;1999.90;;;999.90;;
18407;SDS011;9330;52.210;21.174;2023-08-06T19:32:23;0.10;;;0.10;;
18407;SDS011;9330;52.210;21.174;2023-08-06T19:34:50;0.10;;;0.10;;
18407;SDS011;9330;52.210;21.174;2023-08-06T19:37:18;0.10;;;0.10;;
18407;SDS011;9330;52.210;21.174;2023-08-06T19:39:48;0.10;;;0.10;;
18407;SDS011;9330;52.210;21.174;2023-08-06T19:42:15;0.10;;;0.10;;
18407;SDS011;9330;52.210;21.174;2023-08-06T19:44:42;0.10;;;0.10;;
18407;SDS011;9330;52.210;21.174;2023-08-06T19:47:09;2.45;;;2.35;;
18407;SDS011;9330;52.210;21.174;2023-08-06T19:49:36;0.60;;;0.60;;
18407;SDS011;9330;52.210;21.174;2023-08-06T19:52:03;0.50;;;0.50;;
18407;SDS011;9330;52.210;21.174;2023-08-06T19:54:31;0.75;;;0.75;;
18407;SDS011;9330;52.210;21.174;2023-08-06T19:56:58;17.15;;;15.40;;
18407;SDS011;9330;52.210;21.174;2023-08-06T19:59:25;0.20;;;0.20;;
18407;SDS011;9330;52.210;21.174;2023-08-06T20:01:52;0.40;;;0.40;;
18407;SDS011;9330;52.210;21.174;2023-08-06T20:04:20;0.50;;;0.50;;
18407;SDS011;9330;52.210;21.174;2023-08-06T20:06:47;0.60;;;0.60;;
18407;SDS011;9330;52.210;21.174;2023-08-06T20:09:14;0.70;;;0.70;;
18407;SDS011;9330;52.210;21.174;2023-08-06T20:11:42;1.00;;;1.00;;
18407;SDS011;9330;52.210;21.174;2023-08-06T20:14:09;0.90;;;0.90;;
18407;SDS011;9330;52.210;21.174;2023-08-06T20:16:36;0.90;;;0.90;;
18407;SDS011;9330;52.210;21.174;2023-08-06T20:19:02;1.10;;;1.10;;
18407;SDS011;9330;52.210;21.174;2023-08-06T20:21:29;1.00;;;1.00;;
18407;SDS011;9330;52.210;21.174;2023-08-06T20:23:56;1.20;;;1.20;;
18407;SDS011;9330;52.210;21.174;2023-08-06T20:26:23;1.10;;;1.10;;
18407;SDS011;9330;52.210;21.174;2023-08-06T20:28:51;1.05;;;1.05;;
18407;SDS011;9330;52.210;21.174;2023-08-06T20:31:18;0.70;;;0.70;;
18407;SDS011;9330;52.210;21.174;2023-08-06T20:33:45;0.73;;;0.73;;
18407;SDS011;9330;52.210;21.174;2023-08-06T20:36:12;0.80;;;0.80;;
18407;SDS011;9330;52.210;21.174;2023-08-06T20:38:39;0.70;;;0.70;;
18407;SDS011;9330;52.210;21.174;2023-08-06T20:41:07;0.90;;;0.90;;
18407;SDS011;9330;52.210;21.174;2023-08-06T20:43:34;1.30;;;1.30;;
18407;SDS011;9330;52.210;21.174;2023-08-06T20:46:03;1.77;;;1.77;;
18407;SDS011;9330;52.210;21.174;2023-08-06T20:48:30;0.50;;;0.50;;
18407;SDS011;9330;52.210;21.174;2023-08-06T20:50:57;0.60;;;0.60;;
18407;SDS011;9330;52.210;21.174;2023-08-06T20:53:24;1.40;;;1.40;;
18407;SDS011;9330;52.210;21.174;2023-08-06T20:55:57;6.75;;;6.45;;
18407;SDS011;9330;52.210;21.174;2023-08-06T20:58:25;6.93;;;6.63;;
18407;SDS011;9330;52.210;21.174;2023-08-06T21:00:53;1999.90;;;999.90;;
18407;SDS011;9330;52.210;21.174;2023-08-06T21:03:22;1999.90;;;999.90;;
18407;SDS011;9330;52.210;21.174;2023-08-06T21:05:56;1999.90;;;999.90;;
18407;SDS011;9330;52.210;21.174;2023-08-06T21:08:27;1999.90;;;999.90;;
18407;SDS011;9330;52.210;21.174;2023-08-06T21:10:55;1999.90;;;999.90;;
18407;SDS011;9330;52.210;21.174;2023-08-06T21:13:22;1999.90;;;999.90;;
18407;SDS011;9330;52.210;21.174;2023-08-06T21:15:53;1999.90;;;999.90;;
18407;SDS011;9330;52.210;21.174;2023-08-06T21:18:24;1999.90;;;999.90;;
18407;SDS011;9330;52.210;21.174;2023-08-06T21:20:53;1999.90;;;999.90;;
18407;SDS011;9330;52.210;21.174;2023-08-06T21:23:20;1999.90;;;999.90;;
18407;SDS011;9330;52.210;21.174;2023-08-06T21:25:48;1999.90;;;999.90;;
18407;SDS011;9330;52.210;21.174;2023-08-06T21:28:16;1999.90;;;999.90;;
18407;SDS011;9330;52.210;21.174;2023-08-06T21:30:43;1999.90;;;999.90;;
18407;SDS011;9330;52.210;21.174;2023-08-06T21:33:10;1999.90;;;999.90;;
18407;SDS011;9330;52.210;21.174;2023-08-06T21:35:38;1999.90;;;999.90;;
18407;SDS011;9330;52.210;21.174;2023-08-06T21:38:05;1999.90;;;999.90;;
18407;SDS011;9330;52.210;21.174;2023-08-06T21:40:33;1999.90;;;999.90;;
18407;SDS011;9330;52.210;21.174;2023-08-06T21:43:00;1999.90;;;999.90;;
18407;SDS011;9330;52.210;21.174;2023-08-06T21:45:28;1999.90;;;999.90;;
18407;SDS011;9330;52.210;21.174;2023-08-06T21:47:55;1999.90;;;999.90;;
18407;SDS011;9330;52.210;21.174;2023-08-06T21:50:22;1999.90;;;999.90;;
18407;SDS011;9330;52.210;21.174;2023-08-06T21:52:50;1999.90;;;999.90;;
18407;SDS011;9330;52.210;21.174;2023-08-06T21:55:17;1999.90;;;999.90;;
18407;SDS011;9330;52.210;21.174;2023-08-06T21:57:44;1999.90;;;999.90;;
18407;SDS011;9330;52.210;21.174;2023-08-06T22:00:11;1999.90;;;999.90;;
18407;SDS011;9330;52.210;21.174;2023-08-06T22:02:41;1999.90;;;999.90;;
18407;SDS011;9330;52.210;21.174;2023-08-06T22:05:08;1999.90;;;999.90;;
18407;SDS011;9330;52.210;21.174;2023-08-06T22:07:35;1999.90;;;999.90;;
18407;SDS011;9330;52.210;21.174;2023-08-06T22:10:03;1999.90;;;999.90;;
18407;SDS011;9330;52.210;21.174;2023-08-06T22:12:31;1999.90;;;999.90;;
18407;SDS011;9330;52.210;21.174;2023-08-06T22:14:58;1999.90;;;999.90;;
18407;SDS011;9330;52.210;21.174;2023-08-06T22:17:25;1999.90;;;999.90;;
18407;SDS011;9330;52.210;21.174;2023-08-06T22:19:52;1999.90;;;999.90;;
18407;SDS011;9330;52.210;21.174;2023-08-06T22:22:18;1999.90;;;999.90;;
18407;SDS011;9330;52.210;21.174;2023-08-06T22:24:45;1999.90;;;999.90;;
18407;SDS011;9330;52.210;21.174;2023-08-06T22:27:14;1999.90;;;999.90;;
18407;SDS011;9330;52.210;21.174;2023-08-06T22:29:40;1999.90;;;999.90;;
18407;SDS011;9330;52.210;21.174;2023-08-06T22:32:07;1999.90;;;999.90;;
18407;SDS011;9330;52.210;21.174;2023-08-06T22:34:34;1999.90;;;999.90;;
18407;SDS011;9330;52.210;21.174;2023-08-06T22:37:03;1999.90;;;999.90;;
18407;SDS011;9330;52.210;21.174;2023-08-06T22:39:30;1999.90;;;999.90;;
18407;SDS011;9330;52.210;21.174;2023-08-06T22:41:57;1999.90;;;999.90;;
18407;SDS011;9330;52.210;21.174;2023-08-06T22:44:25;1999.90;;;999.90;;
18407;SDS011;9330;52.210;21.174;2023-08-06T22:46:52;1999.90;;;999.90;;
18407;SDS011;9330;52.210;21.174;2023-08-06T22:49:19;1999.90;;;999.90;;
18407;SDS011;9330;52.210;21.174;2023-08-06T22:51:46;1999.90;;;999.90;;
18407;SDS011;9330;52.210;21.174;2023-08-06T22:54:13;1999.90;;;999.90;;
18407;SDS011;9330;52.210;21.174;2023-08-06T22:56:40;1999.90;;;999.90;;
18407;SDS011;9330;52.210;21.174;2023-08-06T22:59:06;1999.90;;;999.90;;
18407;SDS011;9330;52.210;21.174;2023-08-06T23:01:35;1999.90;;;999.90;;
18407;SDS011;9330;52.210;21.174;2023-08-06T23:04:01;1999.90;;;999.90;;
18407;SDS011;9330;52.210;21.174;2023-08-06T23:06:28;1999.90;;;999.90;;
18407;SDS011;9330;52.210;21.174;2023-08-06T23:08:55;1999.90;;;999.90;;
18407;SDS011;9330;52.210;21.174;2023-08-06T23:11:22;1999.90;;;999.90;;